KIEN

Pine Ridge Airport

Pine Ridge, South Dakota, USA
METAR KIEN 181052Z AUTO 04004KT 2 1/2SM -RA BR OVC007 13/13 A3007 RMK AO2 RAB14 SLP172 T01280128 PNO $
Observed Flight Rules
Jun-18 @ 10:52 UTC (9 minutes ago) Instrument Flight Rules
Wind Visibility Clouds Conditions
40° at 4 knots 2 1/2 miles
  • Overcast at 700' AGL
  • Light Rain
  • Mist
Temperatures Readings
Current 13°C / 55°F
Dewpoint 13°C / 55°F
Humidity 100%
Altimeter 30.07" Hg
Pressure 1017.2 hPa
Elevation 998
METAR KIEN 181052Z AUTO 04004KT 2 1/2SM -RA BR OVC007 13/13 A3007 RMK AO2 RAB14 SLP172 T01280128 PNO $
Observed Flight Rules
Jun-18 @ 10:52 UTC
(9 minutes ago)
IFR
Wind Visibility
40° at 4 knots 2 1/2 miles
Clouds
  • Overcast at 700' AGL
Conditions
  • Light Rain
  • Mist
Temperature Dewpoint
13°C / 55°F 13°C / 55°F
Humidity Altimeter Pressure
100% 30.07" Hg 1017.2 hPa